Time;durP1;ratioP1;P1;durP2;ratioP2;P2;SDS_P1;SDS_P2;PMS_P1;PMS_P2;Temp;Humidity;BMP_temperature;BMP_pressure;BME280_temperature;BME280_humidity;BME280_pressure;Samples;Min_cycle;Max_cycle;Signal;HPM_P1;HPM_P2
2021/10/24 00:00:20;;;;;;;21.40;9.57;;;4.20;99.90;;;;;;5087696;28;20546;-58
2021/10/24 00:02:46;;;;;;;17.48;9.15;;;4.10;99.90;;;;;;5089026;28;20481;-59
2021/10/24 00:05:13;;;;;;;15.27;8.25;;;4.10;99.90;;;;;;5090746;28;20032;-61
2021/10/24 00:07:38;;;;;;;18.23;10.68;;;4.10;99.90;;;;;;5089854;28;20031;-58
2021/10/24 00:10:05;;;;;;;17.75;9.02;;;4.10;99.90;;;;;;5091786;28;20028;-60
2021/10/24 00:12:30;;;;;;;19.90;9.30;;;4.00;99.90;;;;;;5090942;28;20568;-59
2021/10/24 00:14:56;;;;;;;18.35;10.20;;;4.00;99.90;;;;;;5090725;28;20095;-56
2021/10/24 00:17:21;;;;;;;19.25;10.05;;;4.00;99.90;;;;;;5091049;28;20031;-57
2021/10/24 00:19:47;;;;;;;20.27;9.20;;;4.00;99.90;;;;;;5090733;28;20401;-55
2021/10/24 00:22:13;;;;;;;18.70;8.52;;;4.00;99.90;;;;;;5092358;28;20039;-57
2021/10/24 00:24:38;;;;;;;16.20;9.40;;;4.00;99.90;;;;;;5092713;28;20039;-55
2021/10/24 00:27:04;;;;;;;17.90;8.98;;;4.00;99.90;;;;;;5089308;28;20043;-58
2021/10/24 00:29:30;;;;;;;20.67;9.05;;;4.00;99.90;;;;;;5089155;28;20028;-60
2021/10/24 00:31:56;;;;;;;16.65;9.65;;;4.00;99.90;;;;;;5085220;28;20374;-60
2021/10/24 00:34:21;;;;;;;18.13;8.90;;;4.10;99.90;;;;;;5088549;28;20050;-59
2021/10/24 00:36:47;;;;;;;19.77;9.15;;;4.10;99.90;;;;;;5086571;28;20028;-57
2021/10/24 00:39:12;;;;;;;21.63;10.65;;;4.10;99.90;;;;;;5089354;28;20496;-57
2021/10/24 00:41:38;;;;;;;19.45;8.77;;;4.10;99.90;;;;;;5088869;28;20028;-59
2021/10/24 00:44:21;;;;;;;18.95;8.88;;;4.10;99.90;;;;;;5083100;28;20657;-57
2021/10/24 00:46:49;;;;;;;13.23;8.80;;;4.10;99.90;;;;;;5084246;28;20038;-58
2021/10/24 00:49:14;;;;;;;17.67;8.52;;;4.00;99.90;;;;;;5084241;28;20039;-59
2021/10/24 00:51:40;;;;;;;18.83;9.15;;;4.00;99.90;;;;;;5086251;28;20036;-58
2021/10/24 00:54:07;;;;;;;15.02;8.63;;;4.00;99.90;;;;;;5084207;28;20099;-60
2021/10/24 00:56:32;;;;;;;17.02;8.52;;;4.10;99.90;;;;;;5088680;28;20039;-60
2021/10/24 00:58:59;;;;;;;18.52;9.15;;;4.10;99.90;;;;;;5085029;28;20025;-59
2021/10/24 01:01:25;;;;;;;17.42;8.43;;;4.00;99.90;;;;;;5087024;28;20028;-60
2021/10/24 01:03:50;;;;;;;20.42;9.50;;;4.00;99.90;;;;;;5082660;28;20168;-58
2021/10/24 01:06:16;;;;;;;15.55;8.63;;;4.00;99.90;;;;;;5088344;28;20115;-60
2021/10/24 01:08:42;;;;;;;20.58;8.90;;;3.90;99.90;;;;;;5087922;28;20476;-59
2021/10/24 01:11:08;;;;;;;16.85;9.00;;;3.90;99.90;;;;;;5088902;28;20033;-60
2021/10/24 01:13:34;;;;;;;18.83;9.35;;;3.90;99.90;;;;;;5086881;28;20027;-58
2021/10/24 01:16:15;;;;;;;13.98;8.40;;;3.90;99.90;;;;;;5085749;28;20024;-61
2021/10/24 01:18:41;;;;;;;15.07;8.40;;;3.80;99.90;;;;;;5086733;28;20111;-59
2021/10/24 01:21:07;;;;;;;21.45;9.35;;;3.80;99.90;;;;;;5081218;28;20016;-60
2021/10/24 01:23:33;;;;;;;17.63;9.02;;;3.80;99.90;;;;;;5086823;28;20030;-57
2021/10/24 01:25:59;;;;;;;17.35;8.82;;;3.80;99.90;;;;;;5089850;28;20901;-58
2021/10/24 01:28:26;;;;;;;16.95;9.32;;;3.80;99.90;;;;;;5087216;28;20442;-56
2021/10/24 01:30:52;;;;;;;18.52;8.43;;;3.70;99.90;;;;;;5085777;28;20060;-55
2021/10/24 01:33:20;;;;;;;20.17;9.02;;;3.70;99.90;;;;;;5089599;28;20722;-58
2021/10/24 01:35:53;;;;;;;20.88;9.13;;;3.70;99.90;;;;;;5086196;28;20382;-60
2021/10/24 01:38:19;;;;;;;17.45;10.32;;;3.70;99.90;;;;;;5087648;28;20101;-58
2021/10/24 01:40:45;;;;;;;17.05;9.73;;;3.70;99.90;;;;;;5085767;28;20028;-60
2021/10/24 01:43:10;;;;;;;18.55;8.52;;;3.70;99.90;;;;;;5089912;28;20032;-59
2021/10/24 01:45:36;;;;;;;23.63;10.73;;;3.70;99.90;;;;;;5085888;28;20032;-61
2021/10/24 01:48:01;;;;;;;18.27;9.60;;;3.80;99.90;;;;;;5084648;28;20025;-58
2021/10/24 01:50:27;;;;;;;16.52;9.65;;;3.80;99.90;;;;;;5083319;28;20107;-59
2021/10/24 01:52:52;;;;;;;19.05;8.70;;;3.80;99.90;;;;;;5081277;28;20122;-58
2021/10/24 01:55:20;;;;;;;18.98;9.13;;;3.80;99.90;;;;;;5085267;28;20026;-57
2021/10/24 01:57:48;;;;;;;16.45;8.35;;;3.70;99.90;;;;;;5086262;28;20074;-58
2021/10/24 02:00:15;;;;;;;24.38;9.38;;;3.70;99.90;;;;;;5081428;28;20024;-52
2021/10/24 02:02:41;;;;;;;18.77;9.98;;;3.80;99.90;;;;;;5085111;28;20517;-59
2021/10/24 02:05:07;;;;;;;18.33;9.98;;;3.80;99.90;;;;;;5081482;28;20024;-58
2021/10/24 02:07:33;;;;;;;17.20;9.23;;;3.80;99.90;;;;;;5084155;28;20055;-59
2021/10/24 02:09:59;;;;;;;20.00;10.00;;;3.80;99.90;;;;;;5084815;28;21082;-58
2021/10/24 02:12:24;;;;;;;20.42;9.27;;;3.80;99.90;;;;;;5085448;28;20501;-59
2021/10/24 02:14:50;;;;;;;20.80;9.40;;;3.80;99.90;;;;;;5085675;28;20070;-57
2021/10/24 02:17:15;;;;;;;16.75;9.05;;;3.70;99.90;;;;;;5089554;28;20042;-60
2021/10/24 02:19:41;;;;;;;16.92;9.18;;;3.70;99.90;;;;;;5086103;28;20024;-58
2021/10/24 02:22:07;;;;;;;17.20;9.93;;;3.90;99.90;;;;;;5086555;28;20130;-57
2021/10/24 02:24:32;;;;;;;26.30;10.38;;;3.90;99.90;;;;;;5089300;28;20032;-61
2021/10/24 02:26:58;;;;;;;24.90;10.32;;;3.90;99.90;;;;;;5085118;28;20028;-60
2021/10/24 02:29:23;;;;;;;21.33;9.35;;;3.90;99.90;;;;;;5086468;28;20131;-59
2021/10/24 02:31:49;;;;;;;20.13;8.85;;;3.90;99.90;;;;;;5088356;28;20396;-59
2021/10/24 02:34:14;;;;;;;17.77;9.00;;;3.90;99.90;;;;;;5086423;28;20401;-58
2021/10/24 02:36:40;;;;;;;17.90;8.98;;;3.90;99.90;;;;;;5090992;28;20063;-54
2021/10/24 02:39:06;;;;;;;21.30;8.85;;;3.90;99.90;;;;;;5081586;28;20036;-58
2021/10/24 02:41:31;;;;;;;23.77;10.30;;;4.00;99.90;;;;;;5088778;28;20454;-59
2021/10/24 02:43:57;;;;;;;23.95;8.57;;;3.90;99.90;;;;;;5084004;28;20028;-59
2021/10/24 02:46:23;;;;;;;15.43;8.82;;;3.80;99.90;;;;;;5085895;28;20041;-58
2021/10/24 02:48:48;;;;;;;15.43;9.70;;;3.80;99.90;;;;;;5081743;28;20028;-59
2021/10/24 02:51:14;;;;;;;18.60;9.48;;;3.90;99.90;;;;;;5084779;28;20027;-59
2021/10/24 02:53:39;;;;;;;15.85;8.75;;;3.90;99.90;;;;;;5082945;28;20040;-58
2021/10/24 02:56:05;;;;;;;23.05;9.57;;;3.80;99.90;;;;;;5082187;28;20028;-58
2021/10/24 02:58:30;;;;;;;24.38;9.60;;;3.90;99.90;;;;;;5084678;28;20028;-58
2021/10/24 03:00:56;;;;;;;24.02;10.00;;;4.00;99.90;;;;;;5085329;28;20076;-60
2021/10/24 03:03:22;;;;;;;16.80;9.80;;;4.00;99.90;;;;;;5086270;28;20028;-58
2021/10/24 03:05:48;;;;;;;32.03;9.75;;;4.00;99.90;;;;;;5088826;28;20039;-59
2021/10/24 03:08:14;;;;;;;17.98;8.98;;;4.00;99.90;;;;;;5086776;28;20024;-60
2021/10/24 03:10:40;;;;;;;15.18;8.77;;;3.90;99.90;;;;;;5104573;22;20044;-60
2021/10/24 03:13:06;;;;;;;16.42;9.45;;;3.90;99.90;;;;;;5088245;28;20539;-61
2021/10/24 03:15:32;;;;;;;22.90;10.07;;;3.90;99.90;;;;;;5085986;28;20028;-60
2021/10/24 03:17:57;;;;;;;18.00;9.10;;;3.90;99.90;;;;;;5091122;28;20043;-60
2021/10/24 03:20:23;;;;;;;19.58;8.90;;;3.90;99.90;;;;;;5088554;28;20040;-60
2021/10/24 03:22:49;;;;;;;19.08;9.10;;;3.90;99.90;;;;;;5083254;28;20036;-60
2021/10/24 03:25:14;;;;;;;20.67;9.00;;;4.00;99.90;;;;;;5087754;28;20051;-61
2021/10/24 03:27:40;;;;;;;22.52;10.25;;;3.90;99.90;;;;;;5088423;28;20383;-59
2021/10/24 03:30:06;;;;;;;21.00;8.82;;;3.90;99.90;;;;;;5085405;28;20035;-59
2021/10/24 03:32:31;;;;;;;23.40;9.93;;;3.90;99.90;;;;;;5087647;28;20078;-60
2021/10/24 03:34:57;;;;;;;20.15;8.55;;;3.90;99.90;;;;;;5089077;28;20466;-61
2021/10/24 03:37:23;;;;;;;20.17;8.38;;;3.90;99.90;;;;;;5093924;28;20107;-60
2021/10/24 03:39:50;;;;;;;20.90;9.20;;;3.90;99.90;;;;;;5089277;28;20025;-59
2021/10/24 03:42:16;;;;;;;23.95;9.50;;;3.90;99.90;;;;;;5087805;28;20047;-60
2021/10/24 03:44:42;;;;;;;23.45;9.32;;;3.90;99.90;;;;;;5090404;28;20024;-58
2021/10/24 03:47:08;;;;;;;25.10;10.23;;;3.90;99.90;;;;;;5088434;28;20542;-60
2021/10/24 03:49:33;;;;;;;21.70;9.52;;;3.90;99.90;;;;;;5088587;28;20038;-59
2021/10/24 03:51:59;;;;;;;21.65;10.90;;;3.90;99.90;;;;;;5089999;28;20036;-59
2021/10/24 03:54:25;;;;;;;16.92;9.50;;;3.90;99.90;;;;;;5090548;28;20733;-61
2021/10/24 03:56:51;;;;;;;19.30;9.02;;;3.90;99.90;;;;;;5089035;28;20032;-60
2021/10/24 03:59:16;;;;;;;15.65;9.55;;;3.90;99.90;;;;;;5083435;28;20047;-59
2021/10/24 04:01:42;;;;;;;23.05;9.82;;;3.80;99.90;;;;;;5090431;28;20028;-61
2021/10/24 04:04:08;;;;;;;19.90;9.02;;;3.80;99.90;;;;;;5091670;28;20078;-59
2021/10/24 04:06:33;;;;;;;24.77;10.07;;;3.80;99.90;;;;;;5088626;28;20043;-60
2021/10/24 04:08:59;;;;;;;21.38;9.02;;;3.70;99.90;;;;;;5090390;28;20513;-60
2021/10/24 04:11:25;;;;;;;20.08;9.30;;;3.70;99.90;;;;;;5094278;28;20177;-60
2021/10/24 04:13:50;;;;;;;16.67;9.27;;;3.70;99.90;;;;;;5089806;28;20061;-60
2021/10/24 04:16:16;;;;;;;19.23;8.98;;;3.80;99.90;;;;;;5086719;28;20052;-60
2021/10/24 04:18:41;;;;;;;14.63;9.10;;;3.80;99.90;;;;;;5087178;28;20028;-59
2021/10/24 04:21:07;;;;;;;17.85;9.18;;;3.80;99.90;;;;;;5088672;28;20020;-60
2021/10/24 04:23:33;;;;;;;14.20;8.88;;;3.80;99.90;;;;;;5085928;28;20036;-60
2021/10/24 04:25:59;;;;;;;22.02;11.25;;;3.80;99.90;;;;;;5090581;28;20027;-58
2021/10/24 04:28:24;;;;;;;19.17;9.93;;;3.80;99.90;;;;;;5089594;28;20028;-60
2021/10/24 04:30:50;;;;;;;16.08;9.00;;;3.80;99.90;;;;;;5086837;28;20036;-60
2021/10/24 04:33:16;;;;;;;18.98;9.30;;;3.80;99.90;;;;;;5086053;28;20036;-60
2021/10/24 04:35:42;;;;;;;16.55;9.15;;;3.80;99.90;;;;;;5088378;28;20035;-61
2021/10/24 04:38:08;;;;;;;17.48;8.93;;;3.70;99.90;;;;;;5087554;28;20035;-61
2021/10/24 04:40:33;;;;;;;18.67;8.90;;;3.70;99.90;;;;;;5090124;28;20107;-60
2021/10/24 04:42:59;;;;;;;26.83;9.48;;;3.70;99.90;;;;;;5091120;28;20035;-60
2021/10/24 04:45:24;;;;;;;19.63;9.52;;;3.80;99.90;;;;;;5088593;28;20463;-61
2021/10/24 04:47:50;;;;;;;21.77;9.07;;;3.70;99.90;;;;;;5088539;28;20036;-61
2021/10/24 04:50:15;;;;;;;15.73;8.73;;;3.70;99.90;;;;;;5086555;28;20055;-60
2021/10/24 04:52:41;;;;;;;20.73;9.52;;;3.70;99.90;;;;;;5091615;28;20036;-59
2021/10/24 04:55:07;;;;;;;18.58;8.73;;;3.70;99.90;;;;;;5085892;28;20024;-61
2021/10/24 04:57:34;;;;;;;17.65;8.55;;;3.70;99.90;;;;;;5083988;28;20102;-60
2021/10/24 04:59:59;;;;;;;19.73;9.32;;;3.70;99.90;;;;;;5088331;28;20032;-60
2021/10/24 05:02:25;;;;;;;22.95;9.73;;;3.70;99.90;;;;;;5088164;28;20031;-60
2021/10/24 05:04:51;;;;;;;23.58;9.90;;;3.70;99.90;;;;;;5087085;28;20108;-61
2021/10/24 05:07:17;;;;;;;24.52;9.00;;;3.70;99.90;;;;;;5088958;28;20028;-60
2021/10/24 05:09:43;;;;;;;17.13;9.27;;;3.70;99.90;;;;;;5089497;28;20038;-61
2021/10/24 05:12:08;;;;;;;20.25;9.43;;;3.70;99.90;;;;;;5087133;28;20024;-60
2021/10/24 05:14:34;;;;;;;23.70;8.63;;;3.70;99.90;;;;;;5087413;28;20039;-58
2021/10/24 05:17:00;;;;;;;18.05;8.48;;;3.80;99.90;;;;;;5087800;28;20055;-61
2021/10/24 05:19:25;;;;;;;25.70;8.50;;;3.80;99.90;;;;;;5084418;28;20035;-60
2021/10/24 05:21:51;;;;;;;13.10;7.85;;;3.70;99.90;;;;;;5088761;28;20028;-60
2021/10/24 05:24:16;;;;;;;15.10;7.65;;;3.70;99.90;;;;;;5089264;28;20028;-60
2021/10/24 05:26:43;;;;;;;13.38;8.18;;;3.70;99.90;;;;;;5085561;28;20024;-61
2021/10/24 05:29:08;;;;;;;14.15;7.75;;;3.70;99.90;;;;;;5088563;28;20039;-60
2021/10/24 05:31:34;;;;;;;18.42;7.72;;;3.70;99.90;;;;;;5090741;28;20040;-60
2021/10/24 05:33:59;;;;;;;16.35;8.43;;;3.70;99.90;;;;;;5088960;28;20024;-60
2021/10/24 05:36:25;;;;;;;13.52;7.63;;;3.60;99.90;;;;;;5090586;28;20062;-61
2021/10/24 05:38:51;;;;;;;12.10;7.07;;;3.60;99.90;;;;;;5085844;28;20058;-60
2021/10/24 05:41:16;;;;;;;19.45;9.57;;;3.60;99.90;;;;;;5087406;28;20024;-60
2021/10/24 05:43:42;;;;;;;17.10;8.15;;;3.60;99.90;;;;;;5087336;28;20379;-59
2021/10/24 05:46:08;;;;;;;14.27;7.68;;;3.60;99.90;;;;;;5087512;28;20032;-59
2021/10/24 05:48:34;;;;;;;14.38;7.18;;;3.60;99.90;;;;;;5087882;28;20409;-60
2021/10/24 05:51:00;;;;;;;14.63;8.25;;;3.60;99.90;;;;;;5086018;28;20038;-59
2021/10/24 05:53:26;;;;;;;15.35;8.02;;;3.50;99.90;;;;;;5087258;28;20024;-61
2021/10/24 05:55:51;;;;;;;16.40;7.25;;;3.50;99.90;;;;;;5090348;28;20020;-60
2021/10/24 05:58:17;;;;;;;12.65;7.47;;;3.50;99.90;;;;;;5088563;28;20488;-58
2021/10/24 06:00:43;;;;;;;15.38;7.25;;;3.50;99.90;;;;;;5084496;28;20040;-60
2021/10/24 06:03:08;;;;;;;19.73;7.55;;;3.40;99.90;;;;;;5085689;28;20028;-61
2021/10/24 06:05:35;;;;;;;13.68;7.75;;;3.50;99.90;;;;;;5087020;28;20038;-61
2021/10/24 06:08:03;;;;;;;22.42;8.95;;;3.40;99.90;;;;;;5086011;28;20085;-60
2021/10/24 06:10:34;;;;;;;20.45;8.70;;;3.40;99.90;;;;;;5087533;28;20032;-60
2021/10/24 06:13:01;;;;;;;14.82;7.72;;;3.40;99.90;;;;;;5086442;28;20686;-60
2021/10/24 06:15:26;;;;;;;14.95;7.35;;;3.40;99.90;;;;;;5087366;28;20026;-59
2021/10/24 06:18:00;;;;;;;24.00;8.00;;;3.40;99.90;;;;;;5103633;27;20404;-58
2021/10/24 06:20:26;;;;;;;17.67;9.82;;;3.40;99.90;;;;;;5098160;28;20070;-58
2021/10/24 06:22:52;;;;;;;14.70;7.63;;;3.50;99.90;;;;;;5087025;28;20032;-59
2021/10/24 06:25:18;;;;;;;15.65;6.72;;;3.60;99.90;;;;;;5078416;28;20027;-58
2021/10/24 06:27:44;;;;;;;11.20;6.28;;;3.60;99.90;;;;;;5084529;28;20142;-58
2021/10/24 06:30:12;;;;;;;17.58;7.05;;;3.70;99.90;;;;;;5088487;28;20066;-56
2021/10/24 06:32:39;;;;;;;13.68;5.82;;;3.80;99.90;;;;;;5085106;28;20032;-57
2021/10/24 06:35:05;;;;;;;16.80;6.63;;;3.80;99.90;;;;;;5085904;28;20086;-58
2021/10/24 06:37:38;;;;;;;10.38;5.25;;;3.90;99.90;;;;;;5089174;28;20441;-59
2021/10/24 06:40:05;;;;;;;16.08;6.35;;;4.00;99.90;;;;;;5083507;28;20031;-59
2021/10/24 06:42:31;;;;;;;17.98;6.30;;;4.00;99.90;;;;;;5086789;28;20036;-59
2021/10/24 06:44:56;;;;;;;18.15;5.68;;;4.10;99.90;;;;;;5078229;28;20509;-60
2021/10/24 06:47:22;;;;;;;11.75;6.53;;;4.10;99.90;;;;;;5085105;28;20032;-60
2021/10/24 06:49:47;;;;;;;12.73;5.75;;;4.20;99.90;;;;;;5089217;28;20032;-60
2021/10/24 06:52:13;;;;;;;20.27;6.10;;;4.30;99.90;;;;;;5087613;28;20486;-59
2021/10/24 06:54:38;;;;;;;17.92;5.72;;;4.40;99.90;;;;;;5088384;28;20097;-59
2021/10/24 06:57:04;;;;;;;12.32;5.10;;;4.40;99.90;;;;;;5087715;28;20033;-58
2021/10/24 06:59:29;;;;;;;11.10;4.88;;;4.40;99.90;;;;;;5085773;28;20440;-60
2021/10/24 07:01:55;;;;;;;13.63;5.28;;;4.50;99.90;;;;;;5033946;28;20116;-60
2021/10/24 07:04:21;;;;;;;11.40;5.53;;;4.50;99.90;;;;;;5061536;28;20111;-59
2021/10/24 07:06:47;;;;;;;12.02;4.78;;;4.50;99.90;;;;;;5064842;28;20056;-60
2021/10/24 07:09:12;;;;;;;11.65;4.32;;;4.60;99.90;;;;;;5063315;28;20025;-60
2021/10/24 07:11:38;;;;;;;7.70;5.10;;;4.60;99.90;;;;;;5063880;28;20371;-58
2021/10/24 07:14:04;;;;;;;15.40;4.97;;;4.70;99.90;;;;;;5054800;28;20452;-60
2021/10/24 07:16:29;;;;;;;6.53;4.40;;;4.70;99.90;;;;;;5061455;28;20056;-59
2021/10/24 07:18:55;;;;;;;16.77;5.07;;;4.80;99.90;;;;;;5061191;28;20024;-60
2021/10/24 07:21:20;;;;;;;12.43;5.45;;;4.90;99.90;;;;;;5063836;28;20021;-60
2021/10/24 07:23:46;;;;;;;7.25;4.70;;;4.90;99.90;;;;;;5061082;28;20075;-59
2021/10/24 07:26:12;;;;;;;12.68;4.38;;;5.00;99.90;;;;;;5060211;28;20032;-59
2021/10/24 07:28:37;;;;;;;15.95;5.28;;;5.00;99.90;;;;;;5053231;28;20021;-58
2021/10/24 07:31:03;;;;;;;9.45;4.22;;;5.10;99.90;;;;;;5048914;28;20506;-60
2021/10/24 07:33:29;;;;;;;10.40;4.03;;;5.10;99.90;;;;;;5046130;28;20544;-59
2021/10/24 07:35:55;;;;;;;14.40;4.47;;;5.20;99.90;;;;;;5049598;28;20040;-59
2021/10/24 07:38:21;;;;;;;8.70;4.30;;;5.30;99.90;;;;;;5047235;28;20021;-60
2021/10/24 07:40:49;;;;;;;7.38;3.70;;;5.30;99.90;;;;;;5051458;28;20028;-60
2021/10/24 07:43:19;;;;;;;9.35;4.55;;;5.30;99.90;;;;;;5048200;28;20029;-60
2021/10/24 07:45:49;;;;;;;10.93;4.20;;;5.40;99.90;;;;;;5050906;28;20060;-60
2021/10/24 07:48:16;;;;;;;10.20;4.55;;;5.40;99.90;;;;;;5043113;28;20022;-58
2021/10/24 07:50:44;;;;;;;12.77;4.85;;;5.50;99.90;;;;;;5047967;28;20052;-58
2021/10/24 07:53:10;;;;;;;16.38;4.65;;;5.50;99.90;;;;;;5051300;28;20100;-59
2021/10/24 07:55:37;;;;;;;9.05;4.22;;;5.60;99.90;;;;;;5051361;28;20032;-57
2021/10/24 07:58:02;;;;;;;9.40;4.35;;;5.60;99.90;;;;;;5048555;28;20397;-60
2021/10/24 08:00:29;;;;;;;7.40;4.15;;;5.70;99.90;;;;;;5048565;28;20028;-60
2021/10/24 08:02:54;;;;;;;10.15;3.60;;;5.80;99.90;;;;;;5041608;28;20025;-59
2021/10/24 08:05:20;;;;;;;11.05;4.03;;;5.80;99.90;;;;;;5050588;28;20561;-59
2021/10/24 08:07:46;;;;;;;6.15;3.72;;;5.90;99.90;;;;;;5049551;28;20047;-58
2021/10/24 08:10:13;;;;;;;10.43;4.18;;;6.00;99.90;;;;;;5047416;28;20520;-60
2021/10/24 08:12:40;;;;;;;10.35;4.43;;;6.00;99.90;;;;;;5044186;28;20029;-59
2021/10/24 08:15:07;;;;;;;7.57;3.50;;;6.10;99.90;;;;;;5037436;28;20068;-58
2021/10/24 08:17:33;;;;;;;6.82;3.88;;;6.20;99.90;;;;;;5049035;28;20386;-60
2021/10/24 08:19:59;;;;;;;9.23;3.78;;;6.20;99.90;;;;;;5048004;28;20117;-58
2021/10/24 08:22:25;;;;;;;9.77;3.90;;;6.30;99.90;;;;;;5049879;28;20490;-59
2021/10/24 08:24:51;;;;;;;6.30;3.70;;;6.40;99.90;;;;;;5050419;28;20049;-59
2021/10/24 08:27:17;;;;;;;8.65;4.13;;;6.40;99.90;;;;;;5048657;28;20100;-58
2021/10/24 08:29:43;;;;;;;8.85;4.22;;;6.50;99.90;;;;;;5049447;28;20558;-61
2021/10/24 08:32:11;;;;;;;8.43;3.90;;;6.60;99.90;;;;;;5048379;28;20754;-59
2021/10/24 08:34:41;;;;;;;22.08;4.95;;;6.60;99.90;;;;;;5039667;28;20402;-59
2021/10/24 08:37:07;;;;;;;9.73;3.72;;;6.70;99.90;;;;;;5046392;28;20107;-58
2021/10/24 08:39:34;;;;;;;12.43;4.10;;;6.80;99.90;;;;;;5046466;28;20225;-59
2021/10/24 08:42:02;;;;;;;7.68;3.15;;;6.80;99.90;;;;;;5049339;28;20082;-59
2021/10/24 08:44:32;;;;;;;6.00;3.70;;;6.90;99.90;;;;;;5048740;28;20088;-59
2021/10/24 08:46:58;;;;;;;9.63;4.07;;;7.00;99.90;;;;;;5046977;28;20064;-60
2021/10/24 08:49:23;;;;;;;8.30;3.55;;;7.00;99.90;;;;;;5046507;28;20064;-59
2021/10/24 08:51:50;;;;;;;14.57;4.07;;;7.10;99.90;;;;;;5046927;28;20070;-59
2021/10/24 08:54:23;;;;;;;10.98;3.88;;;7.20;99.90;;;;;;5047486;28;20557;-60
2021/10/24 08:56:49;;;;;;;9.80;4.50;;;7.30;99.90;;;;;;5044266;28;20068;-59
2021/10/24 08:59:14;;;;;;;10.27;3.90;;;7.40;99.90;;;;;;5046193;28;20056;-59
2021/10/24 09:01:54;;;;;;;7.43;3.13;;;7.50;99.90;;;;;;5063581;28;20506;-59
2021/10/24 09:04:20;;;;;;;11.77;3.33;;;7.60;99.90;;;;;;5046327;28;20029;-59
2021/10/24 09:06:54;;;;;;;8.63;3.17;;;7.60;99.90;;;;;;5045316;28;21463;-60
2021/10/24 09:09:34;;;;;;;12.82;3.33;;;7.90;99.90;;;;;;5046681;28;20124;-60
2021/10/24 09:12:08;;;;;;;9.95;4.63;;;8.40;99.90;;;;;;5048600;28;20056;-60
2021/10/24 09:14:54;;;;;;;5.97;3.25;;;9.00;99.90;;;;;;5045297;28;20020;-59
2021/10/24 09:17:22;;;;;;;10.93;3.38;;;9.60;99.90;;;;;;5043172;28;20109;-60
2021/10/24 09:19:52;;;;;;;6.95;3.10;;;10.00;99.90;;;;;;5044456;28;20032;-60
2021/10/24 09:22:28;;;;;;;8.35;3.08;;;10.20;99.90;;;;;;5040991;28;20057;-61
2021/10/24 09:25:01;;;;;;;6.85;3.35;;;10.50;99.90;;;;;;5048483;28;20029;-60
2021/10/24 09:27:27;;;;;;;5.97;2.80;;;11.00;99.90;;;;;;5046247;28;20403;-60
2021/10/24 09:29:52;;;;;;;4.97;2.75;;;11.10;99.90;;;;;;5047739;28;20025;-61
2021/10/24 09:32:18;;;;;;;6.70;2.95;;;11.30;99.90;;;;;;5048228;28;20036;-60
2021/10/24 09:35:00;;;;;;;7.50;2.92;;;11.60;99.90;;;;;;5037494;28;20048;-60
2021/10/24 09:37:27;;;;;;;6.63;2.90;;;11.80;99.90;;;;;;5045054;28;20494;-61
2021/10/24 09:39:53;;;;;;;5.07;2.42;;;11.70;99.90;;;;;;5047994;28;20021;-61
2021/10/24 09:42:22;;;;;;;5.60;2.63;;;11.70;99.90;;;;;;5043611;28;20017;-60
2021/10/24 09:45:08;;;;;;;8.23;3.00;;;11.90;99.90;;;;;;5046959;28;20013;-59
2021/10/24 09:47:46;;;;;;;6.95;2.90;;;12.00;99.80;;;;;;5043052;28;20025;-60
2021/10/24 09:50:32;;;;;;;11.45;3.00;;;11.80;99.50;;;;;;5045014;28;20057;-61
2021/10/24 09:53:23;;;;;;;5.38;2.40;;;11.50;99.90;;;;;;5045502;28;20021;-60
2021/10/24 09:56:13;;;;;;;7.00;3.20;;;11.40;99.90;;;;;;5046636;28;20036;-59
2021/10/24 09:58:39;;;;;;;12.65;3.42;;;11.10;99.90;;;;;;5045604;28;20513;-58
2021/10/24 10:01:11;;;;;;;7.70;2.97;;;10.80;99.90;;;;;;5047097;28;20398;-59
2021/10/24 10:03:38;;;;;;;7.97;2.90;;;10.80;99.90;;;;;;5049931;28;20116;-59
2021/10/24 10:06:04;;;;;;;9.90;3.00;;;10.70;99.90;;;;;;5045798;28;20581;-59
2021/10/24 10:08:31;;;;;;;11.35;3.50;;;10.80;99.90;;;;;;5046360;28;20497;-60
2021/10/24 10:11:09;;;;;;;7.78;2.85;;;10.80;99.90;;;;;;5046951;28;20072;-59
2021/10/24 10:13:39;;;;;;;9.02;3.22;;;10.80;99.90;;;;;;5046173;28;20082;-59
2021/10/24 10:16:15;;;;;;;7.20;2.60;;;10.80;99.90;;;;;;5045925;28;20483;-58
2021/10/24 10:18:56;;;;;;;5.68;3.15;;;10.80;99.90;;;;;;5046664;28;20029;-60
2021/10/24 10:21:42;;;;;;;4.47;2.92;;;10.90;99.90;;;;;;5045572;28;20039;-60
2021/10/24 10:24:29;;;;;;;6.38;2.55;;;11.00;99.90;;;;;;5048479;28;20023;-59
2021/10/24 10:26:55;;;;;;;4.40;2.25;;;11.00;99.90;;;;;;5049115;28;20116;-58
2021/10/24 10:29:53;;;;;;;9.75;2.78;;;11.10;99.90;;;;;;5047554;28;20148;-58
2021/10/24 10:32:23;;;;;;;9.32;2.97;;;11.30;99.90;;;;;;5049446;28;20108;-59
2021/10/24 10:34:57;;;;;;;5.90;2.40;;;11.40;99.90;;;;;;5045373;28;20033;-60
2021/10/24 10:37:43;;;;;;;6.25;2.50;;;11.40;99.90;;;;;;5044443;28;20032;-59
2021/10/24 10:40:14;;;;;;;8.45;2.38;;;11.50;99.90;;;;;;5038105;28;20048;-59
2021/10/24 10:42:43;;;;;;;12.32;2.17;;;11.50;99.90;;;;;;5046422;28;20083;-60
2021/10/24 10:45:15;;;;;;;4.85;2.35;;;11.60;99.90;;;;;;5034101;28;20021;-60
2021/10/24 10:48:01;;;;;;;8.32;2.45;;;11.60;99.30;;;;;;5046974;28;20021;-58
2021/10/24 10:50:30;;;;;;;6.82;2.15;;;11.60;99.90;;;;;;5046456;28;20020;-60
2021/10/24 10:53:00;;;;;;;3.65;1.92;;;11.70;99.90;;;;;;5043754;28;20052;-60
2021/10/24 10:55:46;;;;;;;5.07;2.22;;;11.80;99.90;;;;;;5047852;28;20422;-60
2021/10/24 10:58:33;;;;;;;4.55;2.03;;;11.80;99.90;;;;;;5046731;28;20053;-60
2021/10/24 11:00:59;;;;;;;5.82;2.05;;;11.80;99.30;;;;;;5043711;28;20033;-60
2021/10/24 11:03:49;;;;;;;8.00;2.33;;;11.80;99.50;;;;;;5047650;28;20029;-60
2021/10/24 11:06:24;;;;;;;5.45;2.30;;;11.80;99.90;;;;;;5048850;28;20021;-57
2021/10/24 11:09:01;;;;;;;5.38;1.90;;;12.00;99.90;;;;;;5050462;28;20394;-61
2021/10/24 11:11:44;;;;;;;5.32;2.20;;;12.00;99.90;;;;;;5038838;28;20017;-60
2021/10/24 11:14:10;;;;;;;9.67;2.57;;;12.10;99.90;;;;;;5048530;28;20028;-60
2021/10/24 11:16:35;;;;;;;4.97;2.25;;;12.10;99.80;;;;;;5050827;28;20584;-60
2021/10/24 11:19:05;;;;;;;7.25;2.40;;;12.10;99.30;;;;;;5048028;28;20029;-59
2021/10/24 11:21:31;;;;;;;6.93;2.75;;;12.10;98.90;;;;;;5049611;28;20032;-58
2021/10/24 11:23:57;;;;;;;8.55;2.53;;;12.10;98.60;;;;;;5050515;28;20032;-59
2021/10/24 11:26:23;;;;;;;2.75;2.03;;;12.10;98.90;;;;;;5051503;28;20028;-60
2021/10/24 11:28:49;;;;;;;6.30;2.30;;;12.10;99.00;;;;;;5050075;28;20418;-60
2021/10/24 11:33:51;;;;;;;5.40;2.15;;;12.10;99.90;;;;;;5049320;28;20047;-61
2021/10/24 11:36:25;;;;;;;9.48;2.38;;;12.10;99.90;;;;;;5059061;28;20513;-62
2021/10/24 11:39:10;;;;;;;6.32;1.80;;;12.10;98.80;;;;;;5038387;28;20104;-61
2021/10/24 11:41:35;;;;;;;5.32;2.33;;;12.10;98.60;;;;;;5044016;28;20224;-61
2021/10/24 11:44:06;;;;;;;6.13;2.40;;;12.20;99.20;;;;;;5065949;28;20658;-59
2021/10/24 11:46:32;;;;;;;7.75;2.33;;;12.20;99.00;;;;;;5077840;28;20032;-61
2021/10/24 11:49:03;;;;;;;4.78;2.28;;;12.20;98.90;;;;;;5080578;28;20041;-60
2021/10/24 11:51:29;;;;;;;13.27;3.72;;;12.20;99.00;;;;;;5076577;28;20485;-56
2021/10/24 11:53:54;;;;;;;4.28;2.05;;;12.20;98.00;;;;;;5079009;28;20032;-59
2021/10/24 12:01:20;;;;;;;3.47;1.92;;;12.00;98.10;;;;;;5080580;28;20031;-59
2021/10/24 12:04:03;;;;;;;4.97;2.30;;;12.10;98.90;;;;;;5077235;28;20062;-61
2021/10/24 12:06:50;;;;;;;9.52;2.30;;;12.10;99.80;;;;;;5076714;28;20616;-58
2021/10/24 12:09:34;;;;;;;3.97;1.98;;;12.10;99.90;;;;;;5077003;28;20112;-60
2021/10/24 12:12:10;;;;;;;5.03;2.05;;;12.20;98.70;;;;;;5077589;28;20592;-59
2021/10/24 12:14:52;;;;;;;4.60;2.03;;;12.20;98.30;;;;;;5078868;28;20044;-61
2021/10/24 12:17:23;;;;;;;4.68;2.25;;;12.20;98.00;;;;;;5076587;28;20028;-62
2021/10/24 12:20:05;;;;;;;6.75;2.47;;;12.20;98.40;;;;;;5076693;28;20016;-61
2021/10/24 12:22:43;;;;;;;3.10;2.00;;;12.20;97.80;;;;;;5079695;28;20024;-59
2021/10/24 12:25:13;;;;;;;4.40;2.03;;;12.20;98.30;;;;;;5080883;28;20108;-61
2021/10/24 12:27:41;;;;;;;4.80;2.17;;;12.20;98.30;;;;;;5057975;28;20029;-60
2021/10/24 12:30:11;;;;;;;3.67;1.75;;;12.20;97.40;;;;;;5075719;28;20486;-61
2021/10/24 12:32:55;;;;;;;4.47;2.15;;;12.30;97.50;;;;;;5074210;28;20027;-59
2021/10/24 12:35:21;;;;;;;7.60;2.72;;;12.30;98.00;;;;;;5078402;28;20103;-61
2021/10/24 12:38:17;;;;;;;5.85;2.10;;;12.30;97.70;;;;;;5075874;28;20052;-62
2021/10/24 12:40:55;;;;;;;3.67;1.70;;;12.30;98.10;;;;;;5056985;28;20036;-62
2021/10/24 12:43:22;;;;;;;6.60;1.90;;;12.30;98.60;;;;;;5055262;28;20020;-61
2021/10/24 12:46:01;;;;;;;3.00;1.90;;;12.30;98.40;;;;;;5063853;28;20115;-60
2021/10/24 12:48:43;;;;;;;3.70;2.00;;;12.30;98.90;;;;;;5067659;28;20104;-62
2021/10/24 12:51:29;;;;;;;5.90;2.08;;;12.20;99.10;;;;;;5071378;28;20474;-60
2021/10/24 12:54:04;;;;;;;6.18;2.20;;;12.20;99.50;;;;;;5070508;28;20111;-62
2021/10/24 12:56:30;;;;;;;3.90;2.15;;;12.20;99.70;;;;;;5070442;28;20390;-62
2021/10/24 12:58:56;;;;;;;4.20;2.22;;;12.20;99.80;;;;;;5070571;28;20085;-60
2021/10/24 13:01:30;;;;;;;3.10;2.05;;;12.20;99.90;;;;;;5070848;28;20032;-63